Time;durP1;ratioP1;P1;durP2;ratioP2;P2;SDS_P1;SDS_P2;PMS_P1;PMS_P2;Temp;Humidity;BMP_temperature;BMP_pressure;BME280_temperature;BME280_humidity;BME280_pressure;Samples;Min_cycle;Max_cycle;Signal;HPM_P1;HPM_P2
2022/05/06 00:00:07;;;;;;;37.85;19.67;;;;;;;7.42;80.38;95212.05;1684562;85;20984;-51
2022/05/06 00:02:33;;;;;;;30.95;18.35;;;;;;;7.36;80.40;95210.37;1684887;85;21037;-51
2022/05/06 00:05:00;;;;;;;35.23;17.37;;;;;;;7.30;80.45;95210.67;1684310;85;21046;-53
2022/05/06 00:07:27;;;;;;;31.05;17.17;;;;;;;7.28;80.50;95213.05;1684581;85;21313;-52
2022/05/06 00:09:54;;;;;;;29.60;15.08;;;;;;;7.26;80.50;95218.16;1684638;85;20990;-53
2022/05/06 00:12:21;;;;;;;34.08;18.20;;;;;;;7.23;80.49;95219.00;1684629;85;20989;-53
2022/05/06 00:14:49;;;;;;;34.25;18.70;;;;;;;7.19;80.67;95216.88;1684612;85;21569;-53
2022/05/06 00:17:16;;;;;;;36.05;19.50;;;;;;;7.23;80.99;95214.89;1655641;85;21026;-52
2022/05/06 00:19:43;;;;;;;28.23;15.30;;;;;;;7.29;80.82;95218.70;1681777;85;21331;-53
2022/05/06 00:22:10;;;;;;;27.02;15.63;;;;;;;7.35;80.70;95219.77;1681730;84;21009;-53
2022/05/06 00:24:38;;;;;;;25.92;14.98;;;;;;;7.37;80.49;95216.63;1681824;85;21030;-51
2022/05/06 00:27:07;;;;;;;27.00;16.05;;;;;;;7.38;80.35;95204.49;1681891;85;21045;-52
2022/05/06 00:29:35;;;;;;;34.38;16.40;;;;;;;7.40;80.72;95212.48;1681738;85;20982;-51
2022/05/06 00:32:02;;;;;;;24.75;16.02;;;;;;;7.45;80.52;95209.84;1681858;85;21116;-53
2022/05/06 00:34:29;;;;;;;30.65;17.07;;;;;;;7.50;80.49;95211.52;1681759;85;20962;-53
2022/05/06 00:36:56;;;;;;;30.97;16.62;;;;;;;7.55;79.99;95213.77;1681904;85;21018;-52
2022/05/06 00:39:23;;;;;;;26.95;16.37;;;;;;;7.51;79.69;95206.22;1681867;85;21018;-52
2022/05/06 00:41:53;;;;;;;26.82;15.30;;;;;;;7.48;79.60;95207.67;1681726;85;21572;-53
2022/05/06 00:44:22;;;;;;;21.27;13.18;;;;;;;7.45;79.50;95202.42;1655846;85;21280;-53
2022/05/06 00:46:48;;;;;;;21.62;12.35;;;;;;;7.41;79.47;95207.18;1681798;85;21556;-53
2022/05/06 00:49:16;;;;;;;23.27;13.22;;;;;;;7.35;79.65;95211.56;1681809;85;21014;-53
2022/05/06 00:51:44;;;;;;;24.20;14.07;;;;;;;7.31;79.98;95208.11;1681792;85;20991;-53
2022/05/06 00:54:11;;;;;;;20.05;13.98;;;;;;;7.30;80.05;95205.80;1681824;85;21597;-52
2022/05/06 00:56:39;;;;;;;22.80;12.68;;;;;;;7.27;80.21;95204.66;1655830;85;21230;-52
2022/05/06 00:59:06;;;;;;;24.05;14.50;;;;;;;7.26;80.30;95202.33;1679427;85;21033;-52
2022/05/06 01:01:34;;;;;;;28.50;16.75;;;;;;;7.25;80.10;95204.30;1679417;85;21597;-53
2022/05/06 01:04:06;;;;;;;27.52;16.48;;;;;;;7.17;80.15;95210.30;1679564;85;21490;-53
2022/05/06 01:06:35;;;;;;;33.08;17.07;;;;;;;7.09;80.36;95215.67;1656861;85;20986;-53
2022/05/06 01:09:02;;;;;;;28.32;16.32;;;;;;;7.06;80.62;95223.95;1681774;85;21111;-53
2022/05/06 01:11:31;;;;;;;25.45;14.47;;;;;;;7.05;80.96;95214.20;1681706;85;21077;-53
2022/05/06 01:13:59;;;;;;;24.37;14.85;;;;;;;7.08;81.34;95210.64;1679471;85;21101;-54
2022/05/06 01:16:35;;;;;;;26.05;15.03;;;;;;;7.09;81.46;95212.94;1683742;84;21049;-52
2022/05/06 01:19:05;;;;;;;25.50;15.10;;;;;;;7.13;81.71;95206.84;1687347;85;21030;-53
2022/05/06 01:21:35;;;;;;;23.90;16.57;;;;;;;7.14;81.63;95200.19;1687435;85;21255;-53
2022/05/06 01:24:02;;;;;;;26.68;15.72;;;;;;;7.16;81.52;95201.30;1687240;85;21122;-52
2022/05/06 01:26:59;;;;;;;22.87;15.13;;;;;;;7.14;81.29;95205.66;1687221;85;21077;-53
2022/05/06 01:29:26;;;;;;;20.25;14.23;;;;;;;7.18;81.27;95200.29;1687194;85;21001;-52
2022/05/06 01:31:54;;;;;;;24.07;16.05;;;;;;;7.21;81.32;95202.22;1687234;85;21027;-52
2022/05/06 01:34:24;;;;;;;27.77;16.10;;;;;;;7.25;81.39;95198.83;1687313;85;21227;-52
2022/05/06 01:36:53;;;;;;;24.92;16.20;;;;;;;7.28;81.54;95195.27;1687221;85;21556;-53
2022/05/06 01:39:24;;;;;;;26.02;14.83;;;;;;;7.35;81.43;95192.40;1687507;85;21510;-52
2022/05/06 01:41:53;;;;;;;23.10;14.93;;;;;;;7.42;81.36;95197.78;1686631;85;21061;-51
2022/05/06 01:44:22;;;;;;;25.02;15.53;;;;;;;7.47;81.08;95195.92;1687682;85;21018;-51
2022/05/06 01:46:49;;;;;;;21.97;15.18;;;;;;;7.52;80.81;95193.32;1687252;85;21510;-53
2022/05/06 01:49:21;;;;;;;22.27;14.07;;;;;;;7.51;80.49;95198.01;1686866;85;21561;-53
2022/05/06 01:51:48;;;;;;;22.07;14.65;;;;;;;7.46;80.46;95194.38;1687180;85;21041;-53
2022/05/06 01:54:16;;;;;;;23.15;15.05;;;;;;;7.41;80.60;95191.34;1686834;85;21037;-53
2022/05/06 01:56:46;;;;;;;18.82;13.30;;;;;;;7.39;80.76;95194.51;1687278;83;21443;-52
2022/05/06 01:59:14;;;;;;;20.45;12.30;;;;;;;7.40;80.61;95202.90;1665740;85;21344;-53
2022/05/06 02:01:41;;;;;;;15.98;11.93;;;;;;;7.35;80.71;95197.88;1687390;85;20990;-51
2022/05/06 02:06:55;;;;;;;18.12;12.70;;;;;;;7.25;81.08;95200.20;1687255;85;21471;-52
2022/05/06 02:09:22;;;;;;;17.48;11.73;;;;;;;7.22;81.24;95201.03;1687441;85;21518;-51
2022/05/06 02:11:54;;;;;;;16.20;10.78;;;;;;;7.26;81.60;95199.59;1687199;85;21292;-53
2022/05/06 02:14:22;;;;;;;15.93;10.40;;;;;;;7.28;81.22;95195.27;1687073;85;21127;-52
2022/05/06 02:17:06;;;;;;;14.53;9.98;;;;;;;7.27;81.12;95193.72;1640325;85;21495;-51
2022/05/06 02:19:35;;;;;;;38.50;11.40;;;;;;;7.27;81.13;95196.45;1603922;87;20967;-51
2022/05/06 02:22:20;;;;;;;19.37;12.13;;;;;;;7.25;80.87;95197.47;1621534;88;21615;-52
2022/05/06 02:24:48;;;;;;;16.75;12.05;;;;;;;7.28;81.38;95199.95;1631594;88;21267;-52
2022/05/06 02:27:21;;;;;;;21.73;13.15;;;;;;;7.29;81.46;95195.44;1617252;88;21017;-52
2022/05/06 02:35:23;;;;;;;14.83;9.80;;;;;;;7.44;81.41;95200.88;1633022;88;21052;-52
2022/05/06 02:37:50;;;;;;;13.43;10.35;;;;;;;7.45;81.04;95198.31;1632929;88;21291;-50
2022/05/06 02:40:19;;;;;;;12.88;10.90;;;;;;;7.41;81.00;95198.97;1632947;88;21029;-52
2022/05/06 02:42:46;;;;;;;16.85;11.33;;;;;;;7.38;80.99;95203.12;1632791;88;20974;-52
2022/05/06 02:45:13;;;;;;;13.30;10.15;;;;;;;7.35;81.21;95201.98;1609022;88;21481;-52
2022/05/06 02:47:40;;;;;;;20.10;11.57;;;;;;;7.38;81.23;95197.04;1632896;87;21117;-51
2022/05/06 02:50:09;;;;;;;19.32;11.85;;;;;;;7.41;81.19;95205.81;1632932;86;22152;-51
2022/05/06 02:52:37;;;;;;;19.00;12.70;;;;;;;7.43;81.06;95207.54;1632977;87;21621;-52
2022/05/06 02:55:06;;;;;;;22.17;11.60;;;;;;;7.43;81.08;95206.17;1632787;86;21003;-52
2022/05/06 02:57:32;;;;;;;23.02;12.65;;;;;;;7.45;81.20;95209.27;1633117;86;21025;-54
2022/05/06 02:59:59;;;;;;;19.15;11.28;;;;;;;7.47;81.18;95205.52;1632951;88;21014;-51
2022/05/06 03:02:26;;;;;;;17.35;11.95;;;;;;;7.48;81.30;95207.67;1633042;87;22053;-52
2022/05/06 03:04:55;;;;;;;19.52;13.32;;;;;;;7.48;81.39;95212.53;1633276;88;20970;-52
2022/05/06 03:07:23;;;;;;;21.45;13.38;;;;;;;7.54;81.30;95213.59;1632855;87;20998;-50
2022/05/06 03:09:54;;;;;;;19.25;13.50;;;;;;;7.57;81.25;95210.05;1633228;87;21011;-52
2022/05/06 03:12:26;;;;;;;20.52;13.03;;;;;;;7.61;81.47;95212.13;1633202;88;21021;-52
2022/05/06 03:14:54;;;;;;;19.63;12.37;;;;;;;7.65;81.21;95204.63;1632988;88;22026;-52
2022/05/06 03:17:25;;;;;;;19.27;12.13;;;;;;;7.67;81.14;95209.08;1635816;87;21399;-52
2022/05/06 03:19:51;;;;;;;17.77;12.68;;;;;;;7.66;81.04;95208.91;1618102;87;21033;-52
2022/05/06 03:22:18;;;;;;;18.27;12.73;;;;;;;7.65;81.07;95212.84;1640332;87;21016;-52
2022/05/06 03:24:46;;;;;;;16.07;11.57;;;;;;;7.70;81.02;95216.46;1618723;87;21013;-51
2022/05/06 03:29:58;;;;;;;34.55;14.07;;;;;;;7.75;81.22;95211.90;1640451;87;21077;-52
2022/05/06 03:32:27;;;;;;;20.25;11.83;;;;;;;7.81;81.19;95211.59;1640226;87;21018;-52
2022/05/06 03:34:55;;;;;;;17.85;12.70;;;;;;;7.83;80.58;95218.78;1618510;87;20993;-52
2022/05/06 03:37:23;;;;;;;23.25;11.63;;;;;;;7.78;80.53;95220.64;1640435;87;21449;-54
2022/05/06 03:39:50;;;;;;;20.12;12.70;;;;;;;7.73;80.55;95221.09;1640730;87;21163;-51
2022/05/06 03:42:18;;;;;;;24.30;12.90;;;;;;;7.68;80.50;95220.83;1640278;87;21061;-52
2022/05/06 03:44:45;;;;;;;19.48;12.33;;;;;;;7.63;80.88;95224.80;1640223;87;20970;-51
2022/05/06 03:47:13;;;;;;;14.20;11.00;;;;;;;7.64;80.96;95226.35;1640480;87;21446;-52
2022/05/06 03:49:39;;;;;;;17.82;11.43;;;;;;;7.60;80.97;95232.48;1640144;87;21084;-53
2022/05/06 03:52:07;;;;;;;15.98;11.65;;;;;;;7.57;81.01;95228.42;1640252;87;21154;-53
2022/05/06 03:54:35;;;;;;;17.15;11.95;;;;;;;7.51;81.09;95232.23;1640499;87;21002;-53
2022/05/06 03:57:03;;;;;;;18.15;11.43;;;;;;;7.54;81.35;95234.12;1640207;87;21030;-53
2022/05/06 03:59:31;;;;;;;17.92;12.15;;;;;;;7.64;81.27;95240.62;1640362;87;21493;-53
2022/05/06 04:02:03;;;;;;;24.85;14.43;;;;;;;7.69;81.02;95236.82;1639531;87;20977;-53
2022/05/06 04:04:33;;;;;;;21.20;13.30;;;;;;;7.69;81.03;95236.82;1640276;87;20958;-52
2022/05/06 04:07:02;;;;;;;19.35;13.18;;;;;;;7.68;80.95;95236.64;1640314;87;21014;-52
2022/05/06 04:09:30;;;;;;;19.75;13.80;;;;;;;7.67;81.18;95235.09;1640264;87;21017;-53
2022/05/06 04:11:59;;;;;;;19.75;12.45;;;;;;;7.71;81.27;95240.53;1640348;87;21110;-53
2022/05/06 04:14:26;;;;;;;21.62;13.55;;;;;;;7.77;81.11;95238.27;1618149;87;21441;-52
2022/05/06 04:16:53;;;;;;;22.13;12.30;;;;;;;7.83;80.95;95236.59;1640276;87;21153;-53
2022/05/06 04:19:24;;;;;;;21.15;13.58;;;;;;;7.89;80.88;95232.78;1639850;87;21076;-53
2022/05/06 04:24:39;;;;;;;28.40;17.37;;;;;;;8.01;80.97;95239.80;1639809;86;21045;-52
2022/05/06 04:27:06;;;;;;;43.68;15.95;;;;;;;8.13;80.67;95237.83;1640354;87;20981;-52
2022/05/06 04:29:34;;;;;;;38.95;24.98;;;;;;;8.21;80.39;95244.74;1640190;87;21263;-53
2022/05/06 04:32:02;;;;;;;38.02;16.82;;;;;;;8.29;79.79;95242.03;1640129;86;21532;-52
2022/05/06 04:34:29;;;;;;;30.80;15.88;;;;;;;8.34;79.08;95242.94;1640339;86;21037;-58
2022/05/06 04:36:56;;;;;;;26.80;16.32;;;;;;;8.40;78.68;95242.62;1640355;87;21022;-50
2022/05/06 04:39:23;;;;;;;29.30;15.65;;;;;;;8.51;78.22;95252.01;1640389;87;21442;-52
2022/05/06 04:41:52;;;;;;;34.40;16.00;;;;;;;8.60;77.67;95244.02;1640349;87;21301;-53
2022/05/06 04:44:20;;;;;;;27.60;16.05;;;;;;;8.68;77.17;95244.82;1639435;87;21041;-52
2022/05/06 04:46:47;;;;;;;24.95;15.78;;;;;;;8.76;76.83;95235.85;1617877;87;21064;-55
2022/05/06 04:49:15;;;;;;;29.50;16.02;;;;;;;8.88;76.58;95239.30;1640434;87;21052;-54
2022/05/06 04:51:45;;;;;;;23.30;15.43;;;;;;;8.98;76.18;95230.84;1640431;87;20978;-56
2022/05/06 04:54:13;;;;;;;22.62;13.50;;;;;;;9.12;75.75;95236.03;1617348;87;21379;-55
2022/05/06 04:56:40;;;;;;;17.15;10.95;;;;;;;9.32;75.33;95242.25;1638786;87;21006;-55
2022/05/06 04:59:09;;;;;;;22.20;11.57;;;;;;;9.48;74.02;95239.53;1639144;86;21021;-53
2022/05/06 05:01:46;;;;;;;16.65;11.10;;;;;;;9.53;73.02;95237.05;1639155;87;21025;-54
2022/05/06 05:04:13;;;;;;;21.50;11.97;;;;;;;9.60;72.81;95250.60;1639803;87;20981;-55
2022/05/06 05:06:40;;;;;;;19.60;11.03;;;;;;;9.70;72.52;95236.44;1638723;87;21160;-53
2022/05/06 05:09:09;;;;;;;17.48;11.20;;;;;;;9.85;71.73;95244.52;1638619;87;21049;-52
2022/05/06 05:11:37;;;;;;;25.10;11.15;;;;;;;9.91;71.38;95244.16;1638188;87;20985;-55
2022/05/06 05:14:07;;;;;;;25.12;13.30;;;;;;;9.95;71.16;95238.00;1638062;87;21001;-53
2022/05/06 05:16:35;;;;;;;29.15;14.83;;;;;;;10.01;70.88;95244.51;1638621;87;21031;-55
2022/05/06 05:19:03;;;;;;;21.27;12.70;;;;;;;10.07;70.79;95245.55;1659381;85;21164;-56
2022/05/06 05:21:30;;;;;;;25.35;14.43;;;;;;;10.15;70.32;95244.94;1636150;86;21013;-55
2022/05/06 05:23:59;;;;;;;19.67;11.97;;;;;;;10.22;70.26;95237.12;1636189;86;21144;-54
2022/05/06 05:26:26;;;;;;;15.68;11.10;;;;;;;10.35;69.83;95248.34;1659307;85;21080;-53
2022/05/06 05:28:53;;;;;;;14.50;9.90;;;;;;;10.44;69.42;95243.59;1666310;85;20982;-53
2022/05/06 05:31:20;;;;;;;17.98;10.55;;;;;;;10.52;69.23;95246.34;1646787;85;21540;-56
2022/05/06 05:33:48;;;;;;;16.93;9.43;;;;;;;10.59;68.92;95243.38;1636315;86;21557;-54
2022/05/06 05:36:16;;;;;;;12.50;9.05;;;;;;;10.67;68.62;95240.59;1659655;85;21005;-54
2022/05/06 05:38:42;;;;;;;13.88;10.55;;;;;;;10.73;68.33;95243.17;1646059;86;22329;-54
2022/05/06 05:41:09;;;;;;;21.73;10.85;;;;;;;10.80;68.08;95241.58;1634817;86;21040;-54
2022/05/06 05:49:08;;;;;;;16.10;11.60;;;;;;;11.12;67.33;95235.14;1619137;86;21009;-53
2022/05/06 05:51:36;;;;;;;24.20;12.18;;;;;;;11.23;66.91;95241.91;1625183;86;21636;-56
2022/05/06 05:54:04;;;;;;;25.68;12.90;;;;;;;11.32;66.80;95232.99;1636874;85;21006;-57
2022/05/06 05:56:33;;;;;;;36.33;12.78;;;;;;;11.46;66.64;95238.83;1664437;85;21146;-55
2022/05/06 05:59:01;;;;;;;18.80;11.05;;;;;;;11.68;66.25;95237.59;1668722;85;21069;-58
2022/05/06 06:01:30;;;;;;;16.20;9.98;;;;;;;11.88;65.97;95230.62;1647209;85;21099;-55
2022/05/06 06:04:00;;;;;;;18.12;10.03;;;;;;;12.01;65.66;95233.34;1609349;87;21094;-56
2022/05/06 06:06:27;;;;;;;23.20;10.38;;;;;;;12.19;65.44;95230.17;1660085;84;20934;-65
2022/05/06 06:08:56;;;;;;;11.55;8.48;;;;;;;12.43;64.81;95225.03;1631798;86;21162;-57
2022/05/06 06:11:25;;;;;;;14.90;9.68;;;;;;;12.66;63.75;95223.97;1646330;85;21127;-54
2022/05/06 06:13:54;;;;;;;17.98;10.82;;;;;;;12.80;63.09;95224.26;1634137;86;22304;-56
2022/05/06 06:16:24;;;;;;;12.85;9.55;;;;;;;12.88;62.90;95216.48;1657556;85;21072;-54
2022/05/06 06:18:51;;;;;;;14.35;10.60;;;;;;;13.02;62.34;95211.83;1634799;86;21074;-55
2022/05/06 06:21:19;;;;;;;15.72;9.95;;;;;;;13.11;61.56;95215.42;1631270;86;21202;-54
2022/05/06 06:23:50;;;;;;;21.95;10.98;;;;;;;13.18;61.29;95219.91;1642084;86;21101;-56
2022/05/06 06:26:17;;;;;;;17.75;9.45;;;;;;;13.30;60.90;95213.54;1631914;86;21094;-57
2022/05/06 06:28:44;;;;;;;12.50;9.10;;;;;;;13.40;60.36;95206.81;1599625;88;21077;-56
2022/05/06 06:31:13;;;;;;;11.15;7.78;;;;;;;13.44;60.11;95208.85;1617399;87;21146;-55
2022/05/06 06:33:42;;;;;;;10.63;7.30;;;;;;;13.54;60.09;95204.89;1631566;86;21182;-56
2022/05/06 06:36:11;;;;;;;14.30;9.58;;;;;;;13.64;59.75;95199.56;1656649;85;21146;-56
2022/05/06 06:38:38;;;;;;;11.48;7.87;;;;;;;13.73;59.63;95198.98;1641995;85;21188;-56
2022/05/06 06:41:05;;;;;;;12.05;8.73;;;;;;;13.84;59.56;95194.40;1635121;85;21102;-54
2022/05/06 06:43:32;;;;;;;13.95;9.55;;;;;;;13.94;59.22;95191.80;1641997;85;21542;-55
2022/05/06 06:46:07;;;;;;;14.05;9.20;;;;;;;14.03;59.03;95188.44;1643042;85;22043;-56
2022/05/06 06:48:53;;;;;;;13.65;8.75;;;;;;;14.15;58.99;95182.64;1682321;84;21894;-55
2022/05/06 06:51:31;;;;;;;12.93;8.75;;;;;;;14.22;58.68;95176.19;1634482;85;21075;-55
2022/05/06 06:53:59;;;;;;;16.35;9.85;;;;;;;14.26;58.58;95184.36;1684127;83;21062;-55
2022/05/06 06:56:26;;;;;;;16.02;9.70;;;;;;;14.33;58.32;95176.52;1672281;84;21085;-55
2022/05/06 06:58:53;;;;;;;21.97;9.05;;;;;;;14.44;58.17;95178.98;1671804;84;21199;-58
2022/05/06 07:01:21;;;;;;;18.55;9.40;;;;;;;14.56;58.03;95179.45;1687896;84;20981;-59
2022/05/06 07:03:48;;;;;;;12.63;8.43;;;;;;;14.69;57.93;95176.52;1679795;84;21525;-59
2022/05/06 07:11:55;;;;;;;14.85;8.03;;;;;;;15.15;56.52;95165.52;1681816;84;21216;-56
2022/05/06 07:14:25;;;;;;;10.78;8.45;;;;;;;15.35;56.11;95163.78;1676939;84;21160;-54
2022/05/06 07:16:53;;;;;;;21.85;8.48;;;;;;;15.55;55.67;95163.25;1678979;84;21113;-57
2022/05/06 07:19:23;;;;;;;16.62;7.70;;;;;;;15.68;55.27;95156.85;1634599;85;21121;-55
2022/05/06 07:21:49;;;;;;;13.48;8.00;;;;;;;15.84;54.76;95157.25;1673066;83;21027;-55
2022/05/06 07:24:17;;;;;;;14.90;7.35;;;;;;;15.97;53.70;95152.86;1681481;83;21244;-56
2022/05/06 07:26:44;;;;;;;12.25;6.35;;;;;;;16.08;53.24;95152.47;1678307;83;21190;-55
2022/05/06 07:29:12;;;;;;;11.55;6.83;;;;;;;16.24;52.83;95157.61;1688603;83;21104;-56
2022/05/06 07:31:42;;;;;;;13.75;8.65;;;;;;;16.40;52.14;95151.02;1682284;83;21082;-56
2022/05/06 07:34:10;;;;;;;15.13;8.33;;;;;;;16.57;51.94;95141.65;1677483;83;21242;-57
2022/05/06 07:36:44;;;;;;;9.83;7.70;;;;;;;16.84;52.51;95146.95;1676718;83;22150;-59
2022/05/06 07:39:13;;;;;;;13.15;9.03;;;;;;;17.10;51.03;95136.81;1681084;83;21056;-54
2022/05/06 07:41:40;;;;;;;13.35;7.47;;;;;;;17.30;50.46;95134.12;1679094;83;21061;-57
2022/05/06 07:44:08;;;;;;;11.83;8.63;;;;;;;17.44;49.84;95131.98;1683349;83;21100;-58
2022/05/06 07:46:36;;;;;;;13.20;8.63;;;;;;;17.49;49.68;95134.08;1662952;83;21168;-57
2022/05/06 07:49:05;;;;;;;9.95;7.28;;;;;;;17.63;50.83;95127.73;1672976;83;21757;-57
2022/05/06 07:51:32;;;;;;;9.95;6.80;;;;;;;17.87;50.79;95129.10;1676374;83;21175;-57
2022/05/06 07:54:00;;;;;;;12.03;7.05;;;;;;;18.13;51.29;95126.53;1683329;83;21883;-57
2022/05/06 07:56:28;;;;;;;15.53;7.40;;;;;;;18.35;50.24;95122.69;1686923;83;21152;-55
2022/05/06 07:58:56;;;;;;;12.98;7.60;;;;;;;18.59;48.90;95121.05;1682205;83;21128;-59
2022/05/06 08:04:32;;;;;;;10.25;6.95;;;;;;;18.74;48.10;95123.89;1675765;83;21265;-54
2022/05/06 08:06:38;;;;;;;8.70;6.12;;;;;;;19.02;47.51;95120.00;1657106;85;21101;-58
2022/05/06 08:09:06;;;;;;;9.13;7.00;;;;;;;19.16;47.26;95122.69;1659327;83;39088;-57
2022/05/06 08:11:33;;;;;;;9.40;6.83;;;;;;;19.31;47.17;95122.56;1654971;83;21088;-59
2022/05/06 08:14:00;;;;;;;8.90;6.62;;;;;;;19.52;47.65;95123.38;1678398;83;21363;-59
2022/05/06 08:16:29;;;;;;;11.93;6.95;;;;;;;19.72;47.30;95114.90;1655582;83;21066;-60
2022/05/06 08:18:56;;;;;;;8.58;6.30;;;;;;;19.97;45.71;95111.27;1675702;83;21136;-56
2022/05/06 08:21:26;;;;;;;9.68;6.25;;;;;;;20.22;45.05;95113.20;1675679;84;21408;-62
2022/05/06 08:23:54;;;;;;;8.25;6.15;;;;;;;20.49;44.80;95106.95;1651933;85;21529;-58
2022/05/06 08:26:21;;;;;;;7.67;5.80;;;;;;;20.74;45.44;95104.65;1676828;84;22138;-59
2022/05/06 08:28:48;;;;;;;7.83;6.17;;;;;;;20.96;44.99;95101.92;1673512;84;21073;-59
2022/05/06 08:31:14;;;;;;;10.55;5.37;;;;;;;21.19;44.57;95104.88;1653715;84;21083;-57
2022/05/06 08:33:43;;;;;;;7.25;5.10;;;;;;;21.42;43.70;95102.22;1675739;84;21589;-57
2022/05/06 08:36:09;;;;;;;5.33;4.37;;;;;;;21.61;42.86;95097.63;1647664;85;21152;-57
2022/05/06 08:38:37;;;;;;;5.08;4.47;;;;;;;21.75;42.90;95098.03;1647262;84;22802;-57
2022/05/06 08:41:06;;;;;;;8.58;4.85;;;;;;;21.90;42.75;95098.53;1668093;84;21125;-57
2022/05/06 08:43:32;;;;;;;4.95;4.17;;;;;;;22.07;41.54;95099.38;1683687;84;21036;-58
2022/05/06 08:51:32;;;;;;;6.95;4.60;;;;;;;22.64;40.93;95100.87;1674976;84;22089;-58
2022/05/06 08:53:58;;;;;;;4.83;4.33;;;;;;;22.81;38.24;95098.75;1673435;84;21116;-61
2022/05/06 08:56:25;;;;;;;14.80;6.58;;;;;;;22.86;37.00;95103.56;1675310;84;21070;-59
2022/05/06 08:58:54;;;;;;;6.92;5.00;;;;;;;22.83;36.32;95103.20;1675742;84;22264;-58
2022/05/06 09:01:23;;;;;;;7.60;4.53;;;;;;;22.78;36.10;95096.98;1671663;84;21045;-56
2022/05/06 09:03:51;;;;;;;6.90;3.55;;;;;;;22.76;38.69;95089.73;1682194;84;21189;-59
2022/05/06 09:06:27;;;;;;;6.60;4.42;;;;;;;22.98;37.81;95096.61;1671305;84;21070;-58
2022/05/06 09:08:56;;;;;;;7.97;4.45;;;;;;;23.19;36.31;95099.19;1699169;84;21520;-58
2022/05/06 09:16:39;;;;;;;11.78;4.55;;;;;;;23.26;35.81;95095.84;1674725;84;21074;-57
2022/05/06 09:16:50;;;;;;;5.58;4.28;;;;;;;23.11;36.33;95089.81;1675438;84;21128;-58
2022/05/06 09:19:25;;;;;;;9.03;4.25;;;;;;;23.08;37.85;95087.23;1674544;83;22258;-56
2022/05/06 09:22:14;;;;;;;4.80;4.25;;;;;;;22.98;37.94;95098.02;1683745;83;21398;-55
2022/05/06 09:24:43;;;;;;;4.65;4.15;;;;;;;22.91;39.19;95092.19;1680227;83;21344;-56
2022/05/06 09:27:15;;;;;;;5.83;4.22;;;;;;;22.87;38.85;95089.65;1681312;85;21121;-55
2022/05/06 09:29:51;;;;;;;5.47;4.15;;;;;;;22.77;38.81;95091.25;1668068;83;21205;-58
2022/05/06 09:32:25;;;;;;;5.30;4.35;;;;;;;22.67;37.22;95083.00;1681214;83;21037;-57
2022/05/06 09:35:10;;;;;;;4.85;4.15;;;;;;;22.50;38.02;95078.77;1641918;85;21918;-57
2022/05/06 09:37:41;;;;;;;5.45;4.08;;;;;;;22.37;39.54;95080.70;1616579;87;20998;-57
2022/05/06 09:40:11;;;;;;;5.37;4.45;;;;;;;22.37;40.15;95079.92;1586145;87;21026;-57
2022/05/06 09:42:42;;;;;;;5.78;4.60;;;;;;;22.47;40.25;95073.53;1601536;88;21134;-56
2022/05/06 09:45:13;;;;;;;6.55;4.58;;;;;;;22.65;38.00;95075.00;1639715;86;21142;-59
2022/05/06 09:47:42;;;;;;;5.55;4.22;;;;;;;22.86;38.04;95071.29;1619685;88;21193;-58
2022/05/06 09:50:10;;;;;;;5.10;4.58;;;;;;;23.04;38.31;95072.73;1622783;88;21069;-58
2022/05/06 09:52:37;;;;;;;8.15;4.30;;;;;;;23.15;39.40;95064.24;1606025;88;21576;-59
2022/05/06 09:55:08;;;;;;;5.83;3.72;;;;;;;23.35;36.57;95066.02;1641328;85;21253;-56
2022/05/06 09:57:36;;;;;;;5.67;4.10;;;;;;;23.45;35.33;95060.83;1620596;87;21132;-56
2022/05/06 10:00:06;;;;;;;4.55;4.08;;;;;;;23.50;35.40;95058.61;1649697;85;21022;-56
2022/05/06 10:02:36;;;;;;;9.65;4.12;;;;;;;23.55;35.05;95059.97;1645019;85;21129;-57
2022/05/06 10:05:01;;;;;;;4.20;3.80;;;;;;;23.63;35.47;95064.38;1641515;85;21066;-58
2022/05/06 10:07:28;;;;;;;7.58;3.95;;;;;;;23.94;37.31;95058.23;1646413;85;21557;-57
2022/05/06 10:10:05;;;;;;;7.97;4.03;;;;;;;24.27;36.26;95055.81;1641092;85;21522;-56
2022/05/06 10:12:39;;;;;;;6.75;4.12;;;;;;;24.56;34.06;95054.99;1601917;88;21096;-58
2022/05/06 10:15:08;;;;;;;12.30;5.60;;;;;;;24.70;33.13;95044.69;1628804;86;22272;-55
2022/05/06 10:17:52;;;;;;;8.70;4.30;;;;;;;24.82;33.11;95045.30;1634083;86;21558;-55
2022/05/06 10:20:42;;;;;;;6.72;3.85;;;;;;;24.92;33.07;95043.63;1620620;87;21224;-56
2022/05/06 10:23:11;;;;;;;6.08;3.92;;;;;;;25.14;34.47;95044.71;1622669;87;21679;-58
2022/05/06 10:25:48;;;;;;;7.95;4.60;;;;;;;25.22;34.71;95048.44;1676957;84;21470;-56
2022/05/06 10:34:14;;;;;;;4.90;4.05;;;;;;;24.30;34.92;95053.34;1679229;84;21232;-55
2022/05/06 10:36:50;;;;;;;5.15;4.33;;;;;;;24.00;36.08;95049.21;1679791;84;21074;-56
2022/05/06 10:39:36;;;;;;;6.03;4.20;;;;;;;24.04;35.57;95041.90;1671635;84;21553;-56
2022/05/06 10:42:19;;;;;;;6.17;4.67;;;;;;;24.26;37.33;95038.20;1676577;84;21066;-57
2022/05/06 10:44:48;;;;;;;83.55;60.98;;;;;;;24.36;36.61;95035.78;1675847;84;22271;-56
2022/05/06 10:47:21;;;;;;;7.90;4.83;;;;;;;24.50;35.72;95035.97;1678853;84;21164;-57
2022/05/06 10:49:50;;;;;;;4.85;3.55;;;;;;;24.68;34.75;95036.66;1674623;84;21515;-56
2022/05/06 10:52:24;;;;;;;11.15;4.00;;;;;;;24.80;34.32;95033.18;1684785;84;21105;-56
2022/05/06 10:54:59;;;;;;;10.55;4.60;;;;;;;24.85;34.23;95029.52;1680373;84;22658;-58
2022/05/06 10:57:30;;;;;;;5.45;3.83;;;;;;;24.84;35.31;95022.38;1678885;83;21120;-58
2022/05/06 11:00:01;;;;;;;6.08;4.15;;;;;;;24.87;34.98;95012.85;1662764;84;21069;-57
2022/05/06 11:02:31;;;;;;;4.40;3.45;;;;;;;24.82;34.43;95012.92;1675559;84;21046;-57
2022/05/06 11:05:06;;;;;;;5.35;3.20;;;;;;;25.03;34.74;95013.25;1662902;85;21364;-56
2022/05/06 11:07:34;;;;;;;3.30;3.00;;;;;;;25.38;34.74;95016.44;1675093;84;21050;-56
2022/05/06 11:10:17;;;;;;;5.08;4.55;;;;;;;25.98;31.75;95002.70;1676114;84;20977;-56
2022/05/06 11:12:53;;;;;;;15.38;4.60;;;;;;;26.25;30.80;94995.11;1685978;84;21101;-57
2022/05/06 11:15:23;;;;;;;11.45;4.42;;;;;;;26.48;30.42;94994.78;1673404;84;21075;-61
2022/05/06 11:17:50;;;;;;;5.00;3.35;;;;;;;26.61;29.84;94991.17;1691407;84;21127;-60
2022/05/06 11:20:23;;;;;;;5.90;4.37;;;;;;;26.77;31.03;94985.81;1679740;83;21104;-61
2022/05/06 11:22:58;;;;;;;4.92;3.30;;;;;;;26.85;30.81;94990.24;1644004;85;21089;-60
2022/05/06 11:25:28;;;;;;;5.20;4.22;;;;;;;26.85;30.81;94984.59;1679375;84;21182;-60
2022/05/06 11:27:57;;;;;;;4.62;3.52;;;;;;;26.81;32.27;94993.31;1691075;84;21000;-60
2022/05/06 11:30:25;;;;;;;14.87;3.90;;;;;;;26.63;31.77;94993.56;1679438;84;21191;-61
2022/05/06 11:32:59;;;;;;;12.45;8.50;;;;;;;26.42;32.20;94998.34;1682827;84;21031;-59
2022/05/06 11:35:46;;;;;;;6.47;4.17;;;;;;;26.22;31.92;94987.73;1649758;85;21023;-60
2022/05/06 11:38:14;;;;;;;4.65;3.60;;;;;;;26.07;31.02;94986.75;1658934;84;21050;-61
2022/05/06 11:40:42;;;;;;;12.35;5.37;;;;;;;25.88;32.24;94988.16;1667600;84;21008;-60
2022/05/06 11:43:21;;;;;;;7.03;4.87;;;;;;;25.69;32.47;94976.94;1676236;84;21006;-60
2022/05/06 11:48:43;;;;;;;5.22;2.95;;;;;;;25.93;33.13;94970.37;1682322;84;22170;-59
2022/05/06 11:51:30;;;;;;;7.78;3.83;;;;;;;26.47;32.73;94972.06;1654489;85;21303;-57
2022/05/06 11:53:57;;;;;;;4.95;3.35;;;;;;;26.85;30.73;94967.65;1674810;84;21037;-56
2022/05/06 11:56:26;;;;;;;5.20;4.67;;;;;;;26.90;31.08;94965.38;1626999;84;21077;-56
2022/05/06 11:58:57;;;;;;;7.65;4.47;;;;;;;26.90;31.46;94971.02;1676527;84;21575;-59
2022/05/06 12:01:30;;;;;;;10.05;5.62;;;;;;;26.98;32.25;94963.37;1676480;84;21066;-56
2022/05/06 12:04:06;;;;;;;6.72;3.52;;;;;;;27.15;31.80;94968.00;1682844;84;21271;-58
2022/05/06 12:06:44;;;;;;;4.35;3.50;;;;;;;27.17;30.83;94963.97;1683520;83;21636;-59
2022/05/06 12:09:14;;;;;;;8.73;3.02;;;;;;;26.91;30.50;94964.70;1678845;84;21062;-58
2022/05/06 12:11:42;;;;;;;9.45;3.62;;;;;;;26.46;31.24;94967.73;1684248;84;21076;-57
2022/05/06 12:14:18;;;;;;;9.45;3.55;;;;;;;25.98;30.84;94959.73;1684641;84;21583;-58
2022/05/06 12:17:00;;;;;;;6.67;3.10;;;;;;;25.59;31.86;94959.58;1680660;84;22214;-57
2022/05/06 12:19:45;;;;;;;5.42;3.10;;;;;;;25.20;32.42;94951.05;1678990;84;21463;-56
2022/05/06 12:22:24;;;;;;;7.22;3.83;;;;;;;24.86;33.09;94957.84;1680196;83;21104;-56